createdAt,value
2022-08-27T00:02:52.107Z,22.40
2022-08-27T00:12:56.618Z,22.40
2022-08-27T00:22:58.295Z,22.30
2022-08-27T00:32:59.999Z,22.40
2022-08-27T00:43:03.320Z,22.30
2022-08-27T00:53:10.408Z,22.30
2022-08-27T01:03:12.543Z,22.20
2022-08-27T01:13:16.823Z,22.10
2022-08-27T01:23:35.056Z,22.10
2022-08-27T01:33:37.417Z,22.10
2022-08-27T01:43:39.112Z,22.10
2022-08-27T01:53:40.839Z,22.10
2022-08-27T02:03:43.087Z,22.00
2022-08-27T02:13:44.828Z,22.00
2022-08-27T02:23:46.656Z,22.00
2022-08-27T02:33:49.184Z,22.00
2022-08-27T02:43:50.872Z,21.90
2022-08-27T02:53:53.138Z,21.90
2022-08-27T03:03:56.303Z,21.90
2022-08-27T03:13:59.023Z,21.90
2022-08-27T03:24:11.536Z,21.80
2022-08-27T03:34:19.822Z,21.70
2022-08-27T03:44:23.468Z,21.70
2022-08-27T03:54:25.187Z,21.70
2022-08-27T04:04:26.862Z,21.70
2022-08-27T04:14:28.556Z,21.80
2022-08-27T04:24:32.219Z,21.80
2022-08-27T04:34:33.914Z,21.80
2022-08-27T04:44:35.679Z,21.80
2022-08-27T04:54:37.365Z,21.90
2022-08-27T05:04:40.351Z,21.90
2022-08-27T05:14:42.288Z,22.00
2022-08-27T05:24:47.091Z,22.00
2022-08-27T05:34:52.087Z,22.00
2022-08-27T05:44:53.746Z,22.00
2022-08-27T05:54:55.414Z,22.00
2022-08-27T06:04:57.181Z,22.10
2022-08-27T06:14:59.026Z,22.10
2022-08-27T06:25:00.986Z,22.20
2022-08-27T06:35:02.714Z,22.10
2022-08-27T06:45:05.854Z,22.10
2022-08-27T06:55:08.103Z,22.30
2022-08-27T07:05:12.043Z,22.20
2022-08-27T07:15:13.800Z,22.30
2022-08-27T07:25:20.157Z,22.40
2022-08-27T07:35:21.980Z,22.50
2022-08-27T07:45:23.817Z,22.40
2022-08-27T07:55:25.486Z,22.50
2022-08-27T08:05:27.354Z,22.50
2022-08-27T08:15:29.446Z,22.50
2022-08-27T08:25:35.514Z,22.50
2022-08-27T08:35:41.411Z,22.60
2022-08-27T08:45:45.126Z,22.60
2022-08-27T08:56:01.427Z,22.50
2022-08-27T09:06:07.517Z,22.50
2022-08-27T09:16:10.032Z,22.60
2022-08-27T09:26:20.686Z,22.70
2022-08-27T09:36:24.596Z,22.80
2022-08-27T09:46:27.523Z,23.00
2022-08-27T09:56:47.036Z,23.10
2022-08-27T10:06:50.918Z,23.20
2022-08-27T10:17:07.059Z,23.30
2022-08-27T10:27:36.599Z,23.40
2022-08-27T10:37:59.329Z,23.50
2022-08-27T10:48:11.765Z,23.60
2022-08-27T10:58:41.386Z,23.70
2022-08-27T11:09:01.033Z,23.90
2022-08-27T11:19:23.363Z,23.80
2022-08-27T11:29:37.497Z,23.80
2022-08-27T11:40:38.400Z,23.90
2022-08-27T11:50:40.159Z,24.20
2022-08-27T12:00:42.698Z,24.20
2022-08-27T12:11:06.218Z,24.20
2022-08-27T12:21:22.055Z,24.30
2022-08-27T12:31:24.572Z,24.50
2022-08-27T12:41:43.804Z,24.60
2022-08-27T12:51:46.046Z,24.70
2022-08-27T13:02:25.308Z,24.50
2022-08-27T13:12:27.001Z,23.90
2022-08-27T13:22:38.710Z,23.60
2022-08-27T13:32:41.022Z,23.40
2022-08-27T13:42:45.099Z,23.30
2022-08-27T13:53:05.888Z,23.30
2022-08-27T14:03:31.991Z,23.40
2022-08-27T14:13:41.704Z,23.40
2022-08-27T14:23:45.455Z,23.30
2022-08-27T14:33:47.491Z,23.30
2022-08-27T14:43:49.825Z,23.20
2022-08-27T14:53:52.015Z,23.20
2022-08-27T15:03:54.871Z,23.00
2022-08-27T15:13:58.608Z,23.10
2022-08-27T15:24:04.243Z,23.10
2022-08-27T15:34:06.569Z,23.10
2022-08-27T15:44:08.438Z,23.10
2022-08-27T15:54:10.864Z,23.10
2022-08-27T16:04:15.473Z,23.10
2022-08-27T16:14:17.179Z,23.10
2022-08-27T16:24:21.262Z,23.20
2022-08-27T16:34:26.951Z,23.20
2022-08-27T16:44:28.680Z,23.10
2022-08-27T16:54:30.380Z,23.00
2022-08-27T17:04:36.795Z,22.90
2022-08-27T17:14:43.420Z,22.90
2022-08-27T17:24:45.334Z,22.90
2022-08-27T17:34:47.018Z,22.90
2022-08-27T17:44:48.711Z,22.80
2022-08-27T17:54:54.169Z,22.80
2022-08-27T18:04:56.674Z,22.80
2022-08-27T18:15:27.596Z,22.70
2022-08-27T18:25:35.778Z,22.60
2022-08-27T18:35:38.888Z,22.60
2022-08-27T18:45:40.701Z,22.50
2022-08-27T18:55:42.643Z,22.50
2022-08-27T19:05:44.381Z,22.40
2022-08-27T19:16:13.582Z,22.30
2022-08-27T19:26:19.535Z,22.30
2022-08-27T19:36:23.346Z,22.20
2022-08-27T19:46:28.940Z,22.30
2022-08-27T19:56:32.591Z,22.30
2022-08-27T20:06:34.551Z,22.20
2022-08-27T20:16:36.922Z,22.20
2022-08-27T20:26:39.391Z,22.20
2022-08-27T20:36:41.705Z,22.10
2022-08-27T20:46:43.461Z,22.10
2022-08-27T20:56:53.240Z,22.00
2022-08-27T21:06:55.014Z,22.00
2022-08-27T21:16:56.877Z,21.90
2022-08-27T21:26:58.563Z,21.90
2022-08-27T21:37:00.287Z,21.90
2022-08-27T21:47:03.699Z,21.80
2022-08-27T21:57:06.609Z,21.70
2022-08-27T22:07:08.371Z,21.70
2022-08-27T22:17:10.085Z,21.60
2022-08-27T22:27:11.787Z,21.60
2022-08-27T22:37:13.539Z,21.50
2022-08-27T22:47:15.304Z,21.70
2022-08-27T22:57:17.382Z,21.50
2022-08-27T23:07:19.265Z,21.40
2022-08-27T23:17:21.574Z,21.40
2022-08-27T23:27:28.972Z,21.40
2022-08-27T23:37:31.938Z,21.40
2022-08-27T23:47:33.781Z,21.30
2022-08-27T23:57:35.527Z,21.30
